CDT,Max TemperatureF,Mean TemperatureF,Min TemperatureF,Max Dew PointF,MeanDew PointF,Min DewpointF,Max Humidity, Mean Humidity, Min Humidity, Max Sea Level PressureIn, Mean Sea Level PressureIn, Min Sea Level PressureIn, Max VisibilityMiles, Mean VisibilityMiles, Min VisibilityMiles, Max Wind SpeedMPH, Mean Wind SpeedMPH, Max Gust SpeedMPH,PrecipitationIn, CloudCover, Events, WindDirDegrees
2013-4-1,77,64,51,62,56,50,100,74,42,30.05,30.00,29.92,10,10,10,12,5,16,0.00,1,Rain,325
2013-4-2,75,60,46,62,51,45,100,80,35,30.14,30.07,30.03,10,7,0,12,2,,0.00,3,Fog-Rain,114
2013-4-3,66,60,55,63,57,54,100,92,78,30.08,29.96,29.80,10,6,1,28,9,36,1.24,7,Rain-Thunderstorm,38
2013-4-4,73,65,57,61,58,54,96,84,64,29.96,29.90,29.86,10,9,5,13,6,17,0.00,7,,294
2013-4-5,66,57,50,53,48,46,89,73,50,30.11,30.02,29.93,10,10,10,16,10,23,0.00,5,Rain,339
2013-4-6,69,56,43,54,48,42,97,73,52,30.19,30.13,30.10,10,10,10,10,5,,0.00,2,,127
2013-4-7,73,60,48,65,60,47,96,86,70,30.16,30.09,30.04,10,10,9,14,6,,0.00,4,Rain,112
2013-4-8,75,70,66,67,65,62,96,86,69,30.11,30.05,30.00,10,10,8,15,10,21,0.00,5,,123
2013-4-9,75,70,64,67,65,63,96,86,69,30.13,30.07,29.99,10,10,10,16,11,23,0.00,4,,120
2013-4-10,78,72,66,69,67,64,96,87,74,30.05,29.99,29.91,10,10,10,14,10,21,0.00,4,,117
2013-4-11,78,70,62,72,69,62,100,94,82,29.90,29.76,29.63,10,8,1,28,10,38,0.92,7,Rain-Thunderstorm,164
2013-4-12,75,64,52,61,51,44,100,70,35,29.98,29.88,29.77,10,10,10,16,9,21,0.00,5,,345
2013-4-13,75,60,46,57,49,44,93,65,37,30.06,29.99,29.91,10,10,10,14,5,,0.00,2,,106
2013-4-14,68,62,57,65,61,57,100,89,70,29.93,29.84,29.72,10,7,2,26,11,34,0.57,7,Rain-Thunderstorm,98
2013-4-15,75,70,66,68,66,64,100,91,78,30.05,29.96,29.86,10,8,4,13,6,,0.00,8,,103
2013-4-16,77,72,66,68,67,66,100,87,71,30.14,30.10,30.04,10,9,3,14,6,18,0.00,2,,107
2013-4-17,77,72,68,69,68,66,100,87,76,30.15,30.09,30.02,10,9,5,16,8,21,0.00,3,,112
2013-4-18,78,73,69,72,69,65,100,89,79,30.01,29.95,29.89,10,10,8,16,12,22,0.00,6,,123
2013-4-19,73,62,50,72,57,47,96,89,77,30.17,29.98,29.84,10,8,2,21,12,33,0.12,7,Rain,304
2013-4-20,69,56,44,47,40,34,93,59,32,30.25,30.18,30.12,10,10,10,17,8,25,0.00,0,,14
2013-4-21,70,58,46,52,48,42,93,70,47,30.21,30.17,30.12,10,10,10,12,6,22,0.00,1,,63
2013-4-22,72,65,59,61,57,48,87,74,60,30.15,30.11,30.07,10,10,10,13,8,16,0.00,4,,84
2013-4-23,73,70,66,63,61,60,90,79,66,30.15,30.10,30.06,10,10,10,18,13,25,0.00,5,,124
2013-4-24,75,65,57,70,65,56,100,93,78,30.15,30.11,30.05,10,8,0,16,5,23,0.01,5,Fog-Rain,156
2013-4-25,79,68,57,64,59,45,100,84,48,30.27,30.19,30.12,10,6,0,16,4,,0.00,5,Fog-Rain,360
2013-4-26,77,67,57,59,48,39,96,56,28,30.31,30.26,30.22,10,10,10,13,7,20,0.00,3,,89
2013-4-27,78,64,53,72,64,54,100,91,76,30.22,30.15,30.08,10,8,2,14,4,21,0.00,4,,129
2013-4-28,78,72,66,71,68,63,100,91,74,30.09,30.03,29.97,10,8,2,12,5,,0.00,5,,170
2013-4-29,80,72,64,67,65,63,97,79,60,30.00,29.95,29.91,10,10,10,17,5,20,0.00,6,,106
2013-4-30,77,72,66,70,67,64,94,85,76,29.98,29.94,29.91,10,10,10,16,8,,0.00,6,Rain,118